Metar Cercanos

 

LEPA - Palma De Mallorc, Spain
Distance from station: ONO 38km
Actualización: 11/12/2018 07:00
Patches of fog, Parcialmente nuboso
Patches of fog, Parcialmente nuboso
 Viento del ENE
Viento: ENE 4 km/h
Temperatura: 5°C
Rocío: 5°C
Humedad: 100%
Barómetro: 1023 hPa
Resumen: Patches of Fog
Clouds: Parcialmente nuboso
Visibility: 10 km
Cloud details: Few Clouds 30 m
Parcialmente nuboso 1219 m
2018/12/11 06:00 LEPA 110600Z 07002KT 9999 1000NW BCFG FEW001 SCT040 05/05 Q1023 NOSIG
LEMH - Mahon/Menorca Is, Spain
Distance from station: ENE 105km
Actualización: 11/12/2018 07:00
Few Clouds
Few Clouds
 Viento del NNO
Viento: NNO 6 km/h
Temperatura: 8°C
Rocío: 7°C
Humedad: 93%
Barómetro: 1023 hPa
Clouds: Few Clouds
Visibility: 10 km
Cloud details: Few Clouds 762 m
2018/12/11 06:00 LEMH 110600Z 34003KT 9999 FEW025 08/07 Q1023
 
LEIB - Ibiza/Es Codola, Spain
Distance from station: OSO 165km
Actualización: 11/12/2018 07:00
Despejado
Despejado
 Viento del calm
Viento: Calma
Temperatura: 9°C
Rocío: 8°C
Humedad: 94%
Barómetro: 1023 hPa
Resumen: Despejado
Visibility: greater than 10 km
2018/12/11 06:00 LEIB 110600Z 00000KT CAVOK 09/08 Q1023 NOSIG
LEBL - Barcelona Airpor, Spain
Distance from station: NNO 225km
Actualización: 11/12/2018 07:00
Few Clouds
Few Clouds
 Viento del NNO
Viento: NNO 22 km/h
Temperatura: 5°C
Sensación frio: 1°C
Rocío: 3°C
Humedad: 87%
Barómetro: 1023 hPa
Clouds: Few Clouds
Visibility: 10 km
Cloud details: Few Clouds 610 m
2018/12/11 06:00 LEBL 110600Z 33012KT 9999 FEW020 05/03 Q1023 NOSIG
 
LEVC - Valencia (civ/Mi, Spain
Distance from station: NO 188km
Actualización: 11/12/2018 07:00
Despejado
Despejado
 Viento del O
Viento: O 6 km/h
Temperatura: 7°C
Rocío: 5°C
Humedad: 87%
Barómetro: 1023 hPa
Resumen: Despejado
Visibility: greater than 10 km
2018/12/11 06:00 LEVC 110600Z 27003KT CAVOK 07/05 Q1023 NOSIG
LEGE - Gerona/Costa Bra, Spain
Distance from station: N 276km
Actualización: 11/12/2018 07:00
Parcialmente nuboso
Parcialmente nuboso
 Viento del ENE
Viento: ENE 2 km/h
Temperatura: 2°C
Rocío: 2°C
Humedad: 100%
Barómetro: 1023 hPa
Clouds: Parcialmente nuboso
Visibility: 9 km
2018/12/11 06:00 LEGE 110600Z 07001KT 9000 NSC 02/02 Q1023
 
LEAL - Alicante/El Alte, Spain
Distance from station: OSO 344km
Actualización: 11/12/2018 07:00
Despejado
Despejado
 Viento del SO
Viento: SO 7 km/h
Temperatura: 7°C
Sensación frio: 6°C
Rocío: 6°C
Humedad: 93%
Barómetro: 1023 hPa
Resumen: Despejado
Visibility: greater than 10 km
2018/12/11 06:00 LEAL 110600Z 23004KT CAVOK 07/06 Q1023 NOSIG
LEAM - Almeria Airport, Spain
Distance from station: SSO 56km
Actualización: 11/12/2018 07:00
Despejado
Despejado
 Viento del NO
Viento: NO 13 km/h
Temperatura: 11°C
Rocío: 5°C
Humedad: 67%
Barómetro: 1024 hPa
Resumen: Despejado
Visibility: greater than 10 km
2018/12/11 06:00 LEAM 110600Z 32007KT CAVOK 11/05 Q1024
 
LEZG - Zaragoza (mil/Ci, Spain
Distance from station: NO 431km
Actualización: 11/12/2018 07:00
Despejado
Despejado
 Viento del N
Viento: N 6 km/h
Temperatura: 2°C
Rocío: 1°C
Humedad: 93%
Barómetro: 1023 hPa
Resumen: Despejado
Visibility: greater than 10 km
2018/12/11 06:00 LEZG 110600Z 36003KT CAVOK 02/01 Q1023
LEMD - Madrid/Barajas, Spain
Distance from station: ONO 234km
Actualización: 11/12/2018 07:00
Despejado
Despejado
 Viento del calm
Viento: Calma
Temperatura: 0°C
Rocío: 0°C
Humedad: 100%
Barómetro: 1023 hPa
Resumen: Despejado
Visibility: greater than 10 km
2018/12/11 06:00 LEMD 110600Z 00000KT CAVOK M00/M00 Q1023 NOSIG
 
LEGR - Granada Airport, Spain
Distance from station: OSO 62km
Actualización: 11/12/2018 07:00
Despejado
Despejado
 Viento del calm
Viento: Calma
Temperatura: 2°C
Rocío: 1°C
Humedad: 93%
Barómetro: 1024 hPa
Resumen: Despejado
Visibility: greater than 10 km
2018/12/11 06:00 LEGR 110600Z 00000KT CAVOK 02/01 Q1024
LEMG - Malaga (civ/Mil), Spain
Distance from station: OSO 227km
Actualización: 11/12/2018 07:00
Muy nuboso
Muy nuboso
 Viento del ONO
Viento: ONO 9 km/h
Temperatura: 9°C
Sensación frio: 7°C
Rocío: 7°C
Humedad: 87%
Barómetro: 1024 hPa
Clouds: Muy nuboso
Visibility: 10 km
Cloud details: Muy nuboso 610 m
2018/12/11 06:00 LEMG 110600Z 30005KT 9999 BKN020 09/07 Q1024 NOSIG
 
LEZL - Sevilla (civ/Mil, Spain
Distance from station: S 318km
Actualización: 11/12/2018 07:00
Despejado
Despejado
 Viento del E
Viento: E 6 km/h
Temperatura: 8°C
Rocío: 7°C
Humedad: 93%
Barómetro: 1023 hPa
Resumen: Despejado
Visibility: greater than 10 km
2018/12/11 06:00 LEZL 110600Z 08003KT CAVOK 08/07 Q1023 NOSIG
LEVT - Vitoria, Spain
Distance from station: NO 226km
Actualización: 11/12/2018 07:00
Niebla, Cubierto
Niebla, Cubierto
 Viento del calm
Viento: Calma
Temperatura: 0°C
Rocío: 0°C
Humedad: 100%
Barómetro: 1023 hPa
Resumen: Niebla
Clouds: Cubierto
Visibility: 0 km
Cloud details: Cubierto 30 m
2018/12/11 06:00 LEVT 110600Z 00000KT 0250 R04/0700N R22/0600N FG VV001 00/00 Q1023
 
LEBB - Bilbao/Sondica, Spain
Distance from station: NNO 235km
Actualización: 11/12/2018 07:00
Despejado
Despejado
 Viento del SSE
Viento: SSE 7 km/h
Temperatura: 5°C
Sensación frio: 3°C
Rocío: 4°C
Humedad: 93%
Barómetro: 1022 hPa
Resumen: Despejado
Visibility: greater than 10 km
2018/12/11 06:00 LEBB 110600Z 15004KT 120V190 CAVOK 05/04 Q1022 NOSIG
LESO - San Sebastian/Fu, Spain
Distance from station: N 231km
Actualización: 11/12/2018 07:00
Despejado
Despejado
 Viento del OSO
Viento: OSO 6 km/h
Temperatura: 5°C
Rocío: 4°C
Humedad: 93%
Barómetro: 1023 hPa
Resumen: Despejado
Visibility: greater than 10 km
2018/12/11 06:00 LESO 110600Z 24003KT 190V320 CAVOK 05/04 Q1023
 
LEVD - Valladolid(Mil/C, Spain
Distance from station: ONO 239km
Actualización: 11/12/2018 07:00
Parcialmente nuboso
Parcialmente nuboso
 Viento del S
Viento: S 2 km/h
Temperatura: -1°C
Rocío: -1°C
Humedad: 100%
Barómetro: 1023 hPa
Clouds: Parcialmente nuboso
Visibility: 6 km
2018/12/11 06:00 LEVD 110600Z 17001KT 6000 NSC M01/M01 Q1023
LESA - Salamanca (civ/M, Spain
Distance from station: ONO 349km
Actualización: 11/12/2018 07:00
Mist, Parcialmente nuboso
Mist, Parcialmente nuboso
 Viento del calm
Viento: Calma
Temperatura: -2°C
Rocío: -2°C
Humedad: 100%
Barómetro: 1023 hPa
Resumen: Mist
Clouds: Parcialmente nuboso
Visibility: 5 km
2018/12/11 06:00 LESA 110600Z 00000KT 5000 BR NSC M02/M02 Q1023
 
LEXJ - Santander/Paraya, Spain
Distance from station: NNO 247km
Actualización: 11/12/2018 07:00
Parcialmente nuboso
Parcialmente nuboso
 Viento del S
Viento: S 4 km/h
Temperatura: 5°C
Rocío: 5°C
Humedad: 100%
Barómetro: 1021 hPa
Clouds: Parcialmente nuboso
Visibility: 8 km
2018/12/11 06:00 LEXJ 110600Z 19002KT 8000 NSC 05/05 Q1021
LEAS - Asturias/Aviles, Spain
Distance from station: NO 214km
Actualización: 11/12/2018 07:00
Despejado
Despejado
 Viento del OSO
Viento: OSO 7 km/h
Temperatura: 7°C
Sensación frio: 6°C
Rocío: 3°C
Humedad: 76%
Barómetro: 1020 hPa
Resumen: Despejado
Visibility: greater than 10 km
2018/12/11 06:00 LEAS 110600Z 24004KT CAVOK 07/03 Q1020 NOSIG
 
LECO - La Coruna/Alvedr, Spain
Distance from station: ONO 222km
Actualización: 11/12/2018 07:00
Despejado
Despejado
 Viento del S
Viento: S 11 km/h
Temperatura: 7°C
Sensación frio: 5°C
Rocío: 2°C
Humedad: 71%
Barómetro: 1020 hPa
Resumen: Despejado
Visibility: greater than 10 km
2018/12/11 06:00 LECO 110600Z 17006KT CAVOK 07/02 Q1020 NOSIG
LEVX - Vigo/Peinador, Spain
Distance from station: O 214km
Actualización: 11/12/2018 07:00
Despejado
Despejado
 Viento del SO
Viento: SO 13 km/h
Temperatura: 8°C
Sensación frio: 6°C
Rocío: 4°C
Humedad: 76%
Barómetro: 1021 hPa
Resumen: Despejado
Visibility: greater than 10 km
2018/12/11 06:00 LEVX 110600Z 23007KT CAVOK 08/04 Q1021 NOSIG